sensor_id;sensor_type;location;lat;lon;timestamp;P1;durP1;ratioP1;P2;durP2;ratioP2
67041;SDS011;53949;47.790;18.750;2022-10-16T00:00:40;6.72;;;4.80;;
67041;SDS011;53949;47.790;18.750;2022-10-16T00:03:44;10.20;;;5.18;;
67041;SDS011;53949;47.790;18.750;2022-10-16T00:06:48;8.85;;;5.25;;
67041;SDS011;53949;47.790;18.750;2022-10-16T00:09:51;9.23;;;5.12;;
67041;SDS011;53949;47.790;18.750;2022-10-16T00:12:54;14.45;;;6.00;;
67041;SDS011;53949;47.790;18.750;2022-10-16T00:15:57;12.37;;;5.97;;
67041;SDS011;53949;47.790;18.750;2022-10-16T00:19:01;11.60;;;5.37;;
67041;SDS011;53949;47.790;18.750;2022-10-16T00:22:04;9.57;;;5.78;;
67041;SDS011;53949;47.790;18.750;2022-10-16T00:25:08;6.47;;;5.10;;
67041;SDS011;53949;47.790;18.750;2022-10-16T00:28:11;13.85;;;6.35;;
67041;SDS011;53949;47.790;18.750;2022-10-16T00:31:15;7.22;;;5.28;;
67041;SDS011;53949;47.790;18.750;2022-10-16T00:34:20;10.55;;;5.65;;
67041;SDS011;53949;47.790;18.750;2022-10-16T00:37:22;18.62;;;6.07;;
67041;SDS011;53949;47.790;18.750;2022-10-16T00:40:25;11.02;;;6.45;;
67041;SDS011;53949;47.790;18.750;2022-10-16T00:43:37;10.02;;;5.10;;
67041;SDS011;53949;47.790;18.750;2022-10-16T00:46:51;11.80;;;5.55;;
67041;SDS011;53949;47.790;18.750;2022-10-16T00:49:59;8.10;;;5.40;;
67041;SDS011;53949;47.790;18.750;2022-10-16T00:53:05;12.13;;;5.93;;
67041;SDS011;53949;47.790;18.750;2022-10-16T00:56:08;9.30;;;6.12;;
67041;SDS011;53949;47.790;18.750;2022-10-16T00:59:14;10.45;;;5.43;;
67041;SDS011;53949;47.790;18.750;2022-10-16T01:02:18;9.98;;;5.87;;
67041;SDS011;53949;47.790;18.750;2022-10-16T01:05:22;11.52;;;5.93;;
67041;SDS011;53949;47.790;18.750;2022-10-16T01:08:29;9.53;;;6.60;;
67041;SDS011;53949;47.790;18.750;2022-10-16T01:11:57;13.13;;;6.20;;
67041;SDS011;53949;47.790;18.750;2022-10-16T01:15:22;11.70;;;6.12;;
67041;SDS011;53949;47.790;18.750;2022-10-16T01:18:37;14.52;;;8.05;;
67041;SDS011;53949;47.790;18.750;2022-10-16T01:21:43;10.65;;;5.65;;
67041;SDS011;53949;47.790;18.750;2022-10-16T01:24:48;11.57;;;6.07;;
67041;SDS011;53949;47.790;18.750;2022-10-16T01:27:52;11.75;;;6.55;;
67041;SDS011;53949;47.790;18.750;2022-10-16T01:30:56;8.75;;;5.87;;
67041;SDS011;53949;47.790;18.750;2022-10-16T01:34:13;9.63;;;5.50;;
67041;SDS011;53949;47.790;18.750;2022-10-16T01:37:27;11.85;;;6.15;;
67041;SDS011;53949;47.790;18.750;2022-10-16T01:40:35;11.57;;;5.90;;
67041;SDS011;53949;47.790;18.750;2022-10-16T01:43:40;11.05;;;5.65;;
67041;SDS011;53949;47.790;18.750;2022-10-16T01:46:48;12.88;;;6.22;;
67041;SDS011;53949;47.790;18.750;2022-10-16T01:49:53;8.10;;;5.87;;
67041;SDS011;53949;47.790;18.750;2022-10-16T01:52:56;9.70;;;6.35;;
67041;SDS011;53949;47.790;18.750;2022-10-16T01:56:00;11.85;;;6.15;;
67041;SDS011;53949;47.790;18.750;2022-10-16T01:59:14;10.63;;;6.00;;
67041;SDS011;53949;47.790;18.750;2022-10-16T02:02:20;7.72;;;5.72;;
67041;SDS011;53949;47.790;18.750;2022-10-16T02:05:31;11.38;;;7.15;;
67041;SDS011;53949;47.790;18.750;2022-10-16T02:08:35;7.30;;;5.97;;
67041;SDS011;53949;47.790;18.750;2022-10-16T02:11:40;10.98;;;5.70;;
67041;SDS011;53949;47.790;18.750;2022-10-16T02:14:43;12.15;;;6.12;;
67041;SDS011;53949;47.790;18.750;2022-10-16T02:17:46;8.48;;;5.87;;
67041;SDS011;53949;47.790;18.750;2022-10-16T02:30:58;9.30;;;6.57;;
67041;SDS011;53949;47.790;18.750;2022-10-16T02:34:04;13.50;;;7.15;;
67041;SDS011;53949;47.790;18.750;2022-10-16T02:37:08;13.30;;;6.97;;
67041;SDS011;53949;47.790;18.750;2022-10-16T02:40:12;9.73;;;6.43;;
67041;SDS011;53949;47.790;18.750;2022-10-16T02:43:16;10.05;;;5.93;;
67041;SDS011;53949;47.790;18.750;2022-10-16T02:46:20;9.90;;;6.43;;
67041;SDS011;53949;47.790;18.750;2022-10-16T02:49:23;11.35;;;6.70;;
67041;SDS011;53949;47.790;18.750;2022-10-16T02:52:26;10.45;;;6.25;;
67041;SDS011;53949;47.790;18.750;2022-10-16T02:55:30;10.13;;;6.68;;
67041;SDS011;53949;47.790;18.750;2022-10-16T02:58:33;11.52;;;6.60;;
67041;SDS011;53949;47.790;18.750;2022-10-16T03:01:36;14.13;;;7.10;;
67041;SDS011;53949;47.790;18.750;2022-10-16T03:04:39;11.77;;;7.28;;
67041;SDS011;53949;47.790;18.750;2022-10-16T03:07:42;10.82;;;7.47;;
67041;SDS011;53949;47.790;18.750;2022-10-16T03:10:45;12.27;;;7.43;;
67041;SDS011;53949;47.790;18.750;2022-10-16T03:13:48;13.05;;;7.05;;
67041;SDS011;53949;47.790;18.750;2022-10-16T03:16:50;11.68;;;7.18;;
67041;SDS011;53949;47.790;18.750;2022-10-16T03:19:54;10.68;;;6.87;;
67041;SDS011;53949;47.790;18.750;2022-10-16T03:22:57;10.65;;;8.00;;
67041;SDS011;53949;47.790;18.750;2022-10-16T03:26:00;10.25;;;6.85;;
67041;SDS011;53949;47.790;18.750;2022-10-16T03:29:03;11.00;;;8.23;;
67041;SDS011;53949;47.790;18.750;2022-10-16T03:32:06;16.98;;;7.62;;
67041;SDS011;53949;47.790;18.750;2022-10-16T03:35:09;11.45;;;7.45;;
67041;SDS011;53949;47.790;18.750;2022-10-16T03:38:12;12.57;;;7.90;;
67041;SDS011;53949;47.790;18.750;2022-10-16T03:41:15;9.90;;;7.12;;
67041;SDS011;53949;47.790;18.750;2022-10-16T03:44:18;12.30;;;7.25;;
67041;SDS011;53949;47.790;18.750;2022-10-16T03:47:21;13.82;;;8.60;;
67041;SDS011;53949;47.790;18.750;2022-10-16T03:50:26;12.80;;;7.80;;
67041;SDS011;53949;47.790;18.750;2022-10-16T03:53:29;9.70;;;7.10;;
67041;SDS011;53949;47.790;18.750;2022-10-16T03:56:32;11.02;;;7.53;;
67041;SDS011;53949;47.790;18.750;2022-10-16T03:59:35;10.27;;;7.47;;
67041;SDS011;53949;47.790;18.750;2022-10-16T04:02:39;11.38;;;6.70;;
67041;SDS011;53949;47.790;18.750;2022-10-16T04:05:42;9.88;;;7.10;;
67041;SDS011;53949;47.790;18.750;2022-10-16T04:08:45;8.35;;;7.20;;
67041;SDS011;53949;47.790;18.750;2022-10-16T04:11:48;9.88;;;7.47;;
67041;SDS011;53949;47.790;18.750;2022-10-16T04:14:51;12.00;;;8.35;;
67041;SDS011;53949;47.790;18.750;2022-10-16T04:17:54;14.35;;;7.50;;
67041;SDS011;53949;47.790;18.750;2022-10-16T04:21:01;11.40;;;7.12;;
67041;SDS011;53949;47.790;18.750;2022-10-16T04:24:05;10.93;;;7.30;;
67041;SDS011;53949;47.790;18.750;2022-10-16T04:27:08;17.33;;;7.43;;
67041;SDS011;53949;47.790;18.750;2022-10-16T04:30:11;11.10;;;7.20;;
67041;SDS011;53949;47.790;18.750;2022-10-16T04:33:14;11.90;;;7.07;;
67041;SDS011;53949;47.790;18.750;2022-10-16T04:36:17;10.50;;;7.25;;
67041;SDS011;53949;47.790;18.750;2022-10-16T04:39:20;16.10;;;7.80;;
67041;SDS011;53949;47.790;18.750;2022-10-16T04:42:23;10.20;;;7.85;;
67041;SDS011;53949;47.790;18.750;2022-10-16T04:45:27;11.90;;;7.37;;
67041;SDS011;53949;47.790;18.750;2022-10-16T04:48:30;10.57;;;6.95;;
67041;SDS011;53949;47.790;18.750;2022-10-16T04:51:33;18.00;;;7.97;;
67041;SDS011;53949;47.790;18.750;2022-10-16T04:54:36;11.52;;;7.53;;
67041;SDS011;53949;47.790;18.750;2022-10-16T04:57:39;12.45;;;7.97;;
67041;SDS011;53949;47.790;18.750;2022-10-16T05:00:43;11.75;;;7.15;;
67041;SDS011;53949;47.790;18.750;2022-10-16T05:03:48;12.05;;;6.68;;
67041;SDS011;53949;47.790;18.750;2022-10-16T05:06:51;8.02;;;6.18;;
67041;SDS011;53949;47.790;18.750;2022-10-16T05:09:54;12.00;;;7.00;;
67041;SDS011;53949;47.790;18.750;2022-10-16T05:12:57;11.30;;;7.53;;
67041;SDS011;53949;47.790;18.750;2022-10-16T05:16:00;9.05;;;6.55;;
67041;SDS011;53949;47.790;18.750;2022-10-16T05:19:03;8.90;;;7.25;;
67041;SDS011;53949;47.790;18.750;2022-10-16T05:22:26;12.27;;;7.00;;
67041;SDS011;53949;47.790;18.750;2022-10-16T05:25:29;8.13;;;6.55;;
67041;SDS011;53949;47.790;18.750;2022-10-16T05:28:32;11.88;;;7.30;;
67041;SDS011;53949;47.790;18.750;2022-10-16T05:31:35;11.48;;;8.48;;
67041;SDS011;53949;47.790;18.750;2022-10-16T05:34:38;10.55;;;7.50;;
67041;SDS011;53949;47.790;18.750;2022-10-16T05:37:41;12.93;;;7.57;;
67041;SDS011;53949;47.790;18.750;2022-10-16T05:40:50;12.20;;;7.60;;
67041;SDS011;53949;47.790;18.750;2022-10-16T05:43:53;10.85;;;7.43;;
67041;SDS011;53949;47.790;18.750;2022-10-16T05:46:56;10.20;;;7.55;;
67041;SDS011;53949;47.790;18.750;2022-10-16T05:49:58;11.38;;;7.18;;
67041;SDS011;53949;47.790;18.750;2022-10-16T05:53:01;10.98;;;7.68;;
67041;SDS011;53949;47.790;18.750;2022-10-16T05:56:06;14.82;;;7.75;;
67041;SDS011;53949;47.790;18.750;2022-10-16T05:59:09;14.00;;;8.52;;
67041;SDS011;53949;47.790;18.750;2022-10-16T06:02:13;13.50;;;8.45;;
67041;SDS011;53949;47.790;18.750;2022-10-16T06:05:16;10.98;;;7.72;;
67041;SDS011;53949;47.790;18.750;2022-10-16T06:08:19;13.15;;;8.15;;
67041;SDS011;53949;47.790;18.750;2022-10-16T06:11:24;13.93;;;8.38;;
67041;SDS011;53949;47.790;18.750;2022-10-16T06:14:28;14.68;;;7.72;;
67041;SDS011;53949;47.790;18.750;2022-10-16T06:17:31;13.52;;;8.02;;
67041;SDS011;53949;47.790;18.750;2022-10-16T06:20:35;14.70;;;7.35;;
67041;SDS011;53949;47.790;18.750;2022-10-16T06:23:38;11.65;;;7.75;;
67041;SDS011;53949;47.790;18.750;2022-10-16T06:26:41;14.02;;;7.87;;
67041;SDS011;53949;47.790;18.750;2022-10-16T06:29:44;12.23;;;7.37;;
67041;SDS011;53949;47.790;18.750;2022-10-16T06:32:47;10.27;;;7.85;;
67041;SDS011;53949;47.790;18.750;2022-10-16T06:35:50;10.43;;;7.25;;
67041;SDS011;53949;47.790;18.750;2022-10-16T06:38:53;19.35;;;6.97;;
67041;SDS011;53949;47.790;18.750;2022-10-16T06:41:57;9.93;;;6.82;;
67041;SDS011;53949;47.790;18.750;2022-10-16T06:45:09;11.45;;;7.15;;
67041;SDS011;53949;47.790;18.750;2022-10-16T06:48:13;11.52;;;8.05;;
67041;SDS011;53949;47.790;18.750;2022-10-16T06:51:17;15.20;;;8.70;;
67041;SDS011;53949;47.790;18.750;2022-10-16T06:54:22;16.60;;;8.75;;
67041;SDS011;53949;47.790;18.750;2022-10-16T06:57:25;18.17;;;10.00;;
67041;SDS011;53949;47.790;18.750;2022-10-16T07:00:28;18.85;;;9.30;;
67041;SDS011;53949;47.790;18.750;2022-10-16T07:03:31;19.98;;;8.43;;
67041;SDS011;53949;47.790;18.750;2022-10-16T07:06:34;16.60;;;8.57;;
67041;SDS011;53949;47.790;18.750;2022-10-16T07:09:37;15.73;;;8.70;;
67041;SDS011;53949;47.790;18.750;2022-10-16T07:12:40;11.50;;;7.25;;
67041;SDS011;53949;47.790;18.750;2022-10-16T07:15:43;11.27;;;6.90;;
67041;SDS011;53949;47.790;18.750;2022-10-16T07:18:46;11.75;;;7.32;;
67041;SDS011;53949;47.790;18.750;2022-10-16T07:21:50;12.68;;;7.15;;
67041;SDS011;53949;47.790;18.750;2022-10-16T07:24:53;9.43;;;7.12;;
67041;SDS011;53949;47.790;18.750;2022-10-16T07:27:57;14.73;;;7.75;;
67041;SDS011;53949;47.790;18.750;2022-10-16T07:31:01;12.37;;;8.03;;
67041;SDS011;53949;47.790;18.750;2022-10-16T07:34:06;10.60;;;7.37;;
67041;SDS011;53949;47.790;18.750;2022-10-16T07:37:10;11.30;;;6.97;;
67041;SDS011;53949;47.790;18.750;2022-10-16T07:40:12;10.27;;;7.03;;
67041;SDS011;53949;47.790;18.750;2022-10-16T07:43:15;11.30;;;7.30;;
67041;SDS011;53949;47.790;18.750;2022-10-16T07:46:19;11.32;;;6.47;;
67041;SDS011;53949;47.790;18.750;2022-10-16T07:49:23;8.15;;;5.75;;
67041;SDS011;53949;47.790;18.750;2022-10-16T07:52:26;14.02;;;5.97;;
67041;SDS011;53949;47.790;18.750;2022-10-16T07:55:29;8.75;;;6.20;;
67041;SDS011;53949;47.790;18.750;2022-10-16T07:58:32;9.82;;;5.93;;
67041;SDS011;53949;47.790;18.750;2022-10-16T08:01:36;11.50;;;6.37;;
67041;SDS011;53949;47.790;18.750;2022-10-16T08:04:40;9.38;;;5.60;;
67041;SDS011;53949;47.790;18.750;2022-10-16T08:07:43;8.02;;;6.00;;
67041;SDS011;53949;47.790;18.750;2022-10-16T08:10:51;6.97;;;5.32;;
67041;SDS011;53949;47.790;18.750;2022-10-16T08:16:59;9.55;;;5.85;;
67041;SDS011;53949;47.790;18.750;2022-10-16T08:20:04;11.63;;;5.40;;
67041;SDS011;53949;47.790;18.750;2022-10-16T08:23:08;10.00;;;5.30;;
67041;SDS011;53949;47.790;18.750;2022-10-16T08:26:13;7.20;;;5.00;;
67041;SDS011;53949;47.790;18.750;2022-10-16T08:29:16;13.20;;;5.85;;
67041;SDS011;53949;47.790;18.750;2022-10-16T08:32:20;10.00;;;5.40;;
67041;SDS011;53949;47.790;18.750;2022-10-16T08:35:28;11.25;;;5.47;;
67041;SDS011;53949;47.790;18.750;2022-10-16T08:38:33;9.27;;;5.62;;
67041;SDS011;53949;47.790;18.750;2022-10-16T08:45:14;9.30;;;5.43;;
67041;SDS011;53949;47.790;18.750;2022-10-16T08:51:32;8.25;;;5.00;;
67041;SDS011;53949;47.790;18.750;2022-10-16T08:54:37;7.72;;;5.18;;
67041;SDS011;53949;47.790;18.750;2022-10-16T08:57:44;10.23;;;5.10;;
67041;SDS011;53949;47.790;18.750;2022-10-16T09:00:48;7.40;;;5.28;;
67041;SDS011;53949;47.790;18.750;2022-10-16T09:11:06;8.55;;;5.22;;
67041;SDS011;53949;47.790;18.750;2022-10-16T09:14:32;9.38;;;5.72;;
67041;SDS011;53949;47.790;18.750;2022-10-16T09:24:26;7.18;;;4.68;;
67041;SDS011;53949;47.790;18.750;2022-10-16T09:27:31;8.82;;;5.47;;
67041;SDS011;53949;47.790;18.750;2022-10-16T09:30:33;11.05;;;5.30;;
67041;SDS011;53949;47.790;18.750;2022-10-16T09:33:37;10.75;;;5.35;;
67041;SDS011;53949;47.790;18.750;2022-10-16T09:36:43;9.77;;;5.55;;
67041;SDS011;53949;47.790;18.750;2022-10-16T09:39:51;9.38;;;5.35;;
67041;SDS011;53949;47.790;18.750;2022-10-16T09:46:30;7.03;;;4.93;;
67041;SDS011;53949;47.790;18.750;2022-10-16T09:49:34;6.82;;;5.03;;
67041;SDS011;53949;47.790;18.750;2022-10-16T09:52:38;6.43;;;5.15;;
67041;SDS011;53949;47.790;18.750;2022-10-16T09:55:47;10.13;;;4.93;;
67041;SDS011;53949;47.790;18.750;2022-10-16T09:58:59;7.97;;;5.05;;
67041;SDS011;53949;47.790;18.750;2022-10-16T10:02:04;12.32;;;5.87;;
67041;SDS011;53949;47.790;18.750;2022-10-16T10:05:18;9.73;;;5.32;;
67041;SDS011;53949;47.790;18.750;2022-10-16T10:08:25;7.70;;;4.82;;
67041;SDS011;53949;47.790;18.750;2022-10-16T10:14:47;8.45;;;5.20;;
67041;SDS011;53949;47.790;18.750;2022-10-16T10:17:52;7.75;;;5.12;;
67041;SDS011;53949;47.790;18.750;2022-10-16T10:20:57;5.90;;;5.12;;
67041;SDS011;53949;47.790;18.750;2022-10-16T10:24:02;7.65;;;5.00;;
67041;SDS011;53949;47.790;18.750;2022-10-16T10:27:09;6.87;;;4.90;;
67041;SDS011;53949;47.790;18.750;2022-10-16T10:30:24;9.18;;;5.32;;
67041;SDS011;53949;47.790;18.750;2022-10-16T10:36:48;8.35;;;5.45;;
67041;SDS011;53949;47.790;18.750;2022-10-16T10:40:09;6.90;;;4.90;;
67041;SDS011;53949;47.790;18.750;2022-10-16T10:43:39;7.28;;;5.00;;
67041;SDS011;53949;47.790;18.750;2022-10-16T10:50:17;8.10;;;5.62;;
67041;SDS011;53949;47.790;18.750;2022-10-16T11:03:25;7.80;;;4.80;;
67041;SDS011;53949;47.790;18.750;2022-10-16T11:06:40;5.15;;;4.45;;
67041;SDS011;53949;47.790;18.750;2022-10-16T11:09:51;5.65;;;4.60;;
67041;SDS011;53949;47.790;18.750;2022-10-16T11:12:58;7.60;;;4.65;;
67041;SDS011;53949;47.790;18.750;2022-10-16T11:22:56;7.22;;;4.65;;
67041;SDS011;53949;47.790;18.750;2022-10-16T11:26:04;8.05;;;4.75;;
67041;SDS011;53949;47.790;18.750;2022-10-16T11:29:14;7.70;;;4.90;;
67041;SDS011;53949;47.790;18.750;2022-10-16T11:32:57;8.57;;;5.72;;
67041;SDS011;53949;47.790;18.750;2022-10-16T11:39:16;11.93;;;5.10;;
67041;SDS011;53949;47.790;18.750;2022-10-16T11:42:25;5.50;;;5.00;;
67041;SDS011;53949;47.790;18.750;2022-10-16T11:45:40;6.47;;;4.90;;
67041;SDS011;53949;47.790;18.750;2022-10-16T11:48:48;8.98;;;4.82;;
67041;SDS011;53949;47.790;18.750;2022-10-16T11:58:28;9.45;;;4.93;;
67041;SDS011;53949;47.790;18.750;2022-10-16T12:01:44;6.97;;;4.62;;
67041;SDS011;53949;47.790;18.750;2022-10-16T12:04:55;7.40;;;4.70;;
67041;SDS011;53949;47.790;18.750;2022-10-16T12:08:08;6.62;;;4.40;;
67041;SDS011;53949;47.790;18.750;2022-10-16T12:14:36;5.18;;;4.50;;
67041;SDS011;53949;47.790;18.750;2022-10-16T12:18:02;6.40;;;4.28;;
67041;SDS011;53949;47.790;18.750;2022-10-16T12:21:05;6.65;;;4.30;;
67041;SDS011;53949;47.790;18.750;2022-10-16T12:27:41;6.32;;;4.37;;
67041;SDS011;53949;47.790;18.750;2022-10-16T12:30:51;4.77;;;3.97;;
67041;SDS011;53949;47.790;18.750;2022-10-16T12:33:59;6.40;;;4.50;;
67041;SDS011;53949;47.790;18.750;2022-10-16T12:37:20;5.12;;;4.47;;
67041;SDS011;53949;47.790;18.750;2022-10-16T12:40:27;4.50;;;3.87;;
67041;SDS011;53949;47.790;18.750;2022-10-16T12:46:47;4.75;;;4.35;;
67041;SDS011;53949;47.790;18.750;2022-10-16T12:49:51;5.22;;;4.72;;
67041;SDS011;53949;47.790;18.750;2022-10-16T12:52:55;6.45;;;4.40;;
67041;SDS011;53949;47.790;18.750;2022-10-16T12:59:15;5.65;;;4.10;;
67041;SDS011;53949;47.790;18.750;2022-10-16T13:26:23;6.22;;;3.90;;
67041;SDS011;53949;47.790;18.750;2022-10-16T13:29:30;7.68;;;4.43;;
67041;SDS011;53949;47.790;18.750;2022-10-16T13:32:33;6.55;;;4.07;;
67041;SDS011;53949;47.790;18.750;2022-10-16T13:35:36;6.40;;;4.40;;
67041;SDS011;53949;47.790;18.750;2022-10-16T13:38:39;7.40;;;4.50;;
67041;SDS011;53949;47.790;18.750;2022-10-16T13:41:43;7.20;;;4.55;;
67041;SDS011;53949;47.790;18.750;2022-10-16T13:44:47;7.73;;;4.70;;
67041;SDS011;53949;47.790;18.750;2022-10-16T13:48:02;10.80;;;4.65;;
67041;SDS011;53949;47.790;18.750;2022-10-16T13:51:16;6.53;;;4.68;;
67041;SDS011;53949;47.790;18.750;2022-10-16T13:57:24;7.75;;;4.32;;
67041;SDS011;53949;47.790;18.750;2022-10-16T14:00:29;6.18;;;4.93;;
67041;SDS011;53949;47.790;18.750;2022-10-16T14:06:36;6.15;;;5.03;;
67041;SDS011;53949;47.790;18.750;2022-10-16T14:09:39;7.87;;;4.45;;
67041;SDS011;53949;47.790;18.750;2022-10-16T14:12:44;5.37;;;4.03;;
67041;SDS011;53949;47.790;18.750;2022-10-16T14:15:48;7.07;;;4.72;;
67041;SDS011;53949;47.790;18.750;2022-10-16T14:18:56;7.70;;;4.60;;
67041;SDS011;53949;47.790;18.750;2022-10-16T14:22:01;5.80;;;4.72;;
67041;SDS011;53949;47.790;18.750;2022-10-16T14:25:26;6.35;;;4.70;;
67041;SDS011;53949;47.790;18.750;2022-10-16T14:28:29;7.45;;;4.68;;
67041;SDS011;53949;47.790;18.750;2022-10-16T14:31:33;5.35;;;4.80;;
67041;SDS011;53949;47.790;18.750;2022-10-16T14:34:38;5.05;;;4.53;;
67041;SDS011;53949;47.790;18.750;2022-10-16T14:37:43;5.65;;;4.80;;
67041;SDS011;53949;47.790;18.750;2022-10-16T14:40:47;6.72;;;5.40;;
67041;SDS011;53949;47.790;18.750;2022-10-16T14:43:51;5.43;;;4.80;;
67041;SDS011;53949;47.790;18.750;2022-10-16T14:46:56;7.40;;;4.62;;
67041;SDS011;53949;47.790;18.750;2022-10-16T14:49:59;7.40;;;4.43;;
67041;SDS011;53949;47.790;18.750;2022-10-16T14:53:04;6.80;;;4.50;;
67041;SDS011;53949;47.790;18.750;2022-10-16T14:56:15;6.60;;;4.62;;
67041;SDS011;53949;47.790;18.750;2022-10-16T15:02:33;8.88;;;5.30;;
67041;SDS011;53949;47.790;18.750;2022-10-16T15:05:37;6.37;;;4.85;;
67041;SDS011;53949;47.790;18.750;2022-10-16T15:08:41;6.00;;;4.80;;
67041;SDS011;53949;47.790;18.750;2022-10-16T15:11:44;6.50;;;4.70;;
67041;SDS011;53949;47.790;18.750;2022-10-16T15:17:55;7.72;;;4.70;;
67041;SDS011;53949;47.790;18.750;2022-10-16T15:20:59;6.75;;;5.20;;
67041;SDS011;53949;47.790;18.750;2022-10-16T15:24:02;7.15;;;4.50;;
67041;SDS011;53949;47.790;18.750;2022-10-16T15:27:05;9.00;;;4.95;;
67041;SDS011;53949;47.790;18.750;2022-10-16T15:30:08;5.65;;;4.22;;
67041;SDS011;53949;47.790;18.750;2022-10-16T15:33:12;6.00;;;4.35;;
67041;SDS011;53949;47.790;18.750;2022-10-16T15:36:29;5.57;;;4.18;;
67041;SDS011;53949;47.790;18.750;2022-10-16T15:39:33;9.10;;;4.22;;
67041;SDS011;53949;47.790;18.750;2022-10-16T15:42:43;6.35;;;4.15;;
67041;SDS011;53949;47.790;18.750;2022-10-16T15:45:58;4.85;;;4.15;;
67041;SDS011;53949;47.790;18.750;2022-10-16T15:49:07;7.00;;;4.28;;
67041;SDS011;53949;47.790;18.750;2022-10-16T15:52:12;8.15;;;4.78;;
67041;SDS011;53949;47.790;18.750;2022-10-16T15:55:16;6.65;;;3.75;;
67041;SDS011;53949;47.790;18.750;2022-10-16T15:58:21;5.25;;;4.00;;
67041;SDS011;53949;47.790;18.750;2022-10-16T16:01:25;8.23;;;4.07;;
67041;SDS011;53949;47.790;18.750;2022-10-16T16:04:31;10.43;;;4.10;;
67041;SDS011;53949;47.790;18.750;2022-10-16T16:07:45;8.88;;;4.40;;
67041;SDS011;53949;47.790;18.750;2022-10-16T16:11:01;5.60;;;3.80;;
67041;SDS011;53949;47.790;18.750;2022-10-16T16:14:10;6.72;;;4.57;;
67041;SDS011;53949;47.790;18.750;2022-10-16T16:17:15;4.80;;;3.85;;
67041;SDS011;53949;47.790;18.750;2022-10-16T16:20:18;6.43;;;3.90;;
67041;SDS011;53949;47.790;18.750;2022-10-16T16:23:21;5.12;;;4.10;;
67041;SDS011;53949;47.790;18.750;2022-10-16T16:29:28;9.07;;;4.10;;
67041;SDS011;53949;47.790;18.750;2022-10-16T16:32:31;6.45;;;4.35;;
67041;SDS011;53949;47.790;18.750;2022-10-16T16:35:34;4.85;;;3.83;;
67041;SDS011;53949;47.790;18.750;2022-10-16T16:38:38;9.63;;;4.80;;
67041;SDS011;53949;47.790;18.750;2022-10-16T16:41:41;8.15;;;5.65;;
67041;SDS011;53949;47.790;18.750;2022-10-16T16:47:50;6.40;;;3.97;;
67041;SDS011;53949;47.790;18.750;2022-10-16T16:50:52;6.20;;;4.12;;
67041;SDS011;53949;47.790;18.750;2022-10-16T16:53:56;6.32;;;3.83;;
67041;SDS011;53949;47.790;18.750;2022-10-16T16:56:59;5.15;;;3.12;;
67041;SDS011;53949;47.790;18.750;2022-10-16T17:00:03;5.90;;;3.95;;
67041;SDS011;53949;47.790;18.750;2022-10-16T17:03:07;6.18;;;3.22;;
67041;SDS011;53949;47.790;18.750;2022-10-16T17:06:10;8.60;;;3.72;;
67041;SDS011;53949;47.790;18.750;2022-10-16T17:09:16;5.37;;;3.70;;
67041;SDS011;53949;47.790;18.750;2022-10-16T17:12:19;6.62;;;3.83;;
67041;SDS011;53949;47.790;18.750;2022-10-16T17:15:23;4.53;;;3.53;;
67041;SDS011;53949;47.790;18.750;2022-10-16T17:18:27;4.90;;;3.28;;
67041;SDS011;53949;47.790;18.750;2022-10-16T17:21:31;5.07;;;3.50;;
67041;SDS011;53949;47.790;18.750;2022-10-16T17:24:35;7.67;;;3.27;;
67041;SDS011;53949;47.790;18.750;2022-10-16T17:27:38;5.30;;;3.37;;
67041;SDS011;53949;47.790;18.750;2022-10-16T17:30:42;7.03;;;4.03;;
67041;SDS011;53949;47.790;18.750;2022-10-16T17:33:47;6.78;;;3.80;;
67041;SDS011;53949;47.790;18.750;2022-10-16T17:36:51;6.67;;;3.77;;
67041;SDS011;53949;47.790;18.750;2022-10-16T17:39:57;5.43;;;3.87;;
67041;SDS011;53949;47.790;18.750;2022-10-16T17:43:03;4.28;;;3.60;;
67041;SDS011;53949;47.790;18.750;2022-10-16T17:46:09;6.70;;;3.97;;
67041;SDS011;53949;47.790;18.750;2022-10-16T17:49:18;10.35;;;4.10;;
67041;SDS011;53949;47.790;18.750;2022-10-16T17:52:24;15.82;;;4.32;;
67041;SDS011;53949;47.790;18.750;2022-10-16T17:55:30;8.15;;;4.40;;
67041;SDS011;53949;47.790;18.750;2022-10-16T17:58:35;6.57;;;3.67;;
67041;SDS011;53949;47.790;18.750;2022-10-16T18:01:41;4.93;;;3.75;;
67041;SDS011;53949;47.790;18.750;2022-10-16T18:04:50;6.30;;;3.95;;
67041;SDS011;53949;47.790;18.750;2022-10-16T18:07:58;4.80;;;3.47;;
67041;SDS011;53949;47.790;18.750;2022-10-16T18:11:02;4.65;;;3.62;;
67041;SDS011;53949;47.790;18.750;2022-10-16T18:14:06;6.13;;;3.33;;
67041;SDS011;53949;47.790;18.750;2022-10-16T18:17:10;3.53;;;3.22;;
67041;SDS011;53949;47.790;18.750;2022-10-16T18:20:16;10.88;;;3.60;;
67041;SDS011;53949;47.790;18.750;2022-10-16T18:23:20;7.07;;;4.57;;
67041;SDS011;53949;47.790;18.750;2022-10-16T18:26:23;6.85;;;5.45;;
67041;SDS011;53949;47.790;18.750;2022-10-16T18:29:31;13.65;;;9.95;;
67041;SDS011;53949;47.790;18.750;2022-10-16T18:32:38;11.35;;;7.97;;
67041;SDS011;53949;47.790;18.750;2022-10-16T18:35:42;7.57;;;5.43;;
67041;SDS011;53949;47.790;18.750;2022-10-16T18:38:56;6.45;;;3.90;;
67041;SDS011;53949;47.790;18.750;2022-10-16T18:42:00;6.15;;;3.80;;
67041;SDS011;53949;47.790;18.750;2022-10-16T18:45:06;7.97;;;4.10;;
67041;SDS011;53949;47.790;18.750;2022-10-16T18:48:11;7.00;;;4.03;;
67041;SDS011;53949;47.790;18.750;2022-10-16T18:51:16;5.00;;;3.50;;
67041;SDS011;53949;47.790;18.750;2022-10-16T18:57:34;5.07;;;3.53;;
67041;SDS011;53949;47.790;18.750;2022-10-16T19:00:38;29.80;;;19.23;;
67041;SDS011;53949;47.790;18.750;2022-10-16T19:03:42;34.33;;;18.90;;
67041;SDS011;53949;47.790;18.750;2022-10-16T19:06:50;26.42;;;15.05;;
67041;SDS011;53949;47.790;18.750;2022-10-16T19:09:55;23.62;;;15.93;;
67041;SDS011;53949;47.790;18.750;2022-10-16T19:12:59;18.35;;;11.55;;
67041;SDS011;53949;47.790;18.750;2022-10-16T19:16:14;18.70;;;12.23;;
67041;SDS011;53949;47.790;18.750;2022-10-16T19:19:23;23.15;;;11.90;;
67041;SDS011;53949;47.790;18.750;2022-10-16T19:22:29;17.85;;;11.57;;
67041;SDS011;53949;47.790;18.750;2022-10-16T19:25:53;32.53;;;13.13;;
67041;SDS011;53949;47.790;18.750;2022-10-16T19:29:00;14.43;;;8.90;;
67041;SDS011;53949;47.790;18.750;2022-10-16T19:32:05;13.82;;;8.50;;
67041;SDS011;53949;47.790;18.750;2022-10-16T19:35:12;13.23;;;7.43;;
67041;SDS011;53949;47.790;18.750;2022-10-16T19:38:18;13.00;;;6.70;;
67041;SDS011;53949;47.790;18.750;2022-10-16T19:41:22;8.05;;;5.68;;
67041;SDS011;53949;47.790;18.750;2022-10-16T19:44:25;14.93;;;6.87;;
67041;SDS011;53949;47.790;18.750;2022-10-16T19:47:29;11.15;;;6.05;;
67041;SDS011;53949;47.790;18.750;2022-10-16T19:50:33;5.65;;;4.53;;
67041;SDS011;53949;47.790;18.750;2022-10-16T19:53:35;7.72;;;4.53;;
67041;SDS011;53949;47.790;18.750;2022-10-16T19:56:40;8.95;;;5.68;;
67041;SDS011;53949;47.790;18.750;2022-10-16T19:59:43;8.15;;;6.12;;
67041;SDS011;53949;47.790;18.750;2022-10-16T20:02:47;6.40;;;5.23;;
67041;SDS011;53949;47.790;18.750;2022-10-16T20:05:53;11.82;;;5.53;;
67041;SDS011;53949;47.790;18.750;2022-10-16T20:08:59;5.93;;;4.60;;
67041;SDS011;53949;47.790;18.750;2022-10-16T20:12:03;8.10;;;4.90;;
67041;SDS011;53949;47.790;18.750;2022-10-16T20:15:06;9.57;;;5.35;;
67041;SDS011;53949;47.790;18.750;2022-10-16T20:18:10;8.73;;;5.30;;
67041;SDS011;53949;47.790;18.750;2022-10-16T20:21:17;9.27;;;5.43;;
67041;SDS011;53949;47.790;18.750;2022-10-16T20:24:22;8.20;;;4.87;;
67041;SDS011;53949;47.790;18.750;2022-10-16T20:27:25;7.15;;;4.60;;